sensor_id;sensor_type;location;lat;lon;timestamp;P1;durP1;ratioP1;P2;durP2;ratioP2
48040;SDS011;33815;48.386;11.738;2023-04-07T00:00:53;17.58;;;10.30;;
48040;SDS011;33815;48.386;11.738;2023-04-07T00:05:43;18.77;;;7.33;;
48040;SDS011;33815;48.386;11.738;2023-04-07T00:08:08;16.90;;;8.77;;
48040;SDS011;33815;48.386;11.738;2023-04-07T00:10:34;16.60;;;8.35;;
48040;SDS011;33815;48.386;11.738;2023-04-07T00:12:59;15.43;;;8.32;;
48040;SDS011;33815;48.386;11.738;2023-04-07T00:15:24;13.35;;;8.40;;
48040;SDS011;33815;48.386;11.738;2023-04-07T00:17:50;17.27;;;8.48;;
48040;SDS011;33815;48.386;11.738;2023-04-07T00:20:15;15.50;;;8.80;;
48040;SDS011;33815;48.386;11.738;2023-04-07T00:22:41;15.57;;;9.25;;
48040;SDS011;33815;48.386;11.738;2023-04-07T00:25:06;15.30;;;8.05;;
48040;SDS011;33815;48.386;11.738;2023-04-07T00:27:32;13.45;;;8.95;;
48040;SDS011;33815;48.386;11.738;2023-04-07T00:29:57;15.48;;;9.65;;
48040;SDS011;33815;48.386;11.738;2023-04-07T00:32:22;16.67;;;9.52;;
48040;SDS011;33815;48.386;11.738;2023-04-07T00:34:48;15.77;;;10.23;;
48040;SDS011;33815;48.386;11.738;2023-04-07T00:37:13;14.30;;;9.57;;
48040;SDS011;33815;48.386;11.738;2023-04-07T00:39:38;14.95;;;10.02;;
48040;SDS011;33815;48.386;11.738;2023-04-07T00:42:03;15.57;;;10.40;;
48040;SDS011;33815;48.386;11.738;2023-04-07T00:44:32;16.30;;;10.43;;
48040;SDS011;33815;48.386;11.738;2023-04-07T00:46:58;17.20;;;10.70;;
48040;SDS011;33815;48.386;11.738;2023-04-07T00:49:24;19.45;;;10.30;;
48040;SDS011;33815;48.386;11.738;2023-04-07T00:51:52;14.82;;;9.50;;
48040;SDS011;33815;48.386;11.738;2023-04-07T00:54:18;15.48;;;10.75;;
48040;SDS011;33815;48.386;11.738;2023-04-07T00:56:43;15.43;;;9.93;;
48040;SDS011;33815;48.386;11.738;2023-04-07T01:07:26;16.52;;;10.45;;
48040;SDS011;33815;48.386;11.738;2023-04-07T01:10:00;13.93;;;9.63;;
48040;SDS011;33815;48.386;11.738;2023-04-07T01:15:19;17.38;;;9.65;;
48040;SDS011;33815;48.386;11.738;2023-04-07T01:17:47;17.08;;;10.48;;
48040;SDS011;33815;48.386;11.738;2023-04-07T01:20:18;19.52;;;10.55;;
48040;SDS011;33815;48.386;11.738;2023-04-07T01:22:50;16.10;;;10.75;;
48040;SDS011;33815;48.386;11.738;2023-04-07T01:25:25;17.15;;;10.60;;
48040;SDS011;33815;48.386;11.738;2023-04-07T01:28:13;14.18;;;9.35;;
48040;SDS011;33815;48.386;11.738;2023-04-07T01:30:51;16.77;;;11.23;;
48040;SDS011;33815;48.386;11.738;2023-04-07T01:33:20;21.13;;;12.50;;
48040;SDS011;33815;48.386;11.738;2023-04-07T01:35:47;22.17;;;11.32;;
48040;SDS011;33815;48.386;11.738;2023-04-07T01:38:15;20.42;;;12.48;;
48040;SDS011;33815;48.386;11.738;2023-04-07T01:40:41;22.80;;;12.88;;
48040;SDS011;33815;48.386;11.738;2023-04-07T01:43:08;22.40;;;12.55;;
48040;SDS011;33815;48.386;11.738;2023-04-07T01:45:34;21.58;;;12.43;;
48040;SDS011;33815;48.386;11.738;2023-04-07T01:48:01;21.38;;;11.30;;
48040;SDS011;33815;48.386;11.738;2023-04-07T01:50:30;18.35;;;10.63;;
48040;SDS011;33815;48.386;11.738;2023-04-07T01:52:55;21.80;;;11.65;;
48040;SDS011;33815;48.386;11.738;2023-04-07T01:55:21;18.05;;;10.93;;
48040;SDS011;33815;48.386;11.738;2023-04-07T01:57:47;19.30;;;11.52;;
48040;SDS011;33815;48.386;11.738;2023-04-07T02:00:12;16.75;;;10.88;;
48040;SDS011;33815;48.386;11.738;2023-04-07T02:02:39;17.20;;;11.25;;
48040;SDS011;33815;48.386;11.738;2023-04-07T02:05:08;19.15;;;10.90;;
48040;SDS011;33815;48.386;11.738;2023-04-07T02:07:42;19.13;;;11.40;;
48040;SDS011;33815;48.386;11.738;2023-04-07T02:10:16;16.45;;;11.10;;
48040;SDS011;33815;48.386;11.738;2023-04-07T02:12:44;18.83;;;11.07;;
48040;SDS011;33815;48.386;11.738;2023-04-07T02:15:11;15.88;;;10.50;;
48040;SDS011;33815;48.386;11.738;2023-04-07T02:17:39;17.23;;;11.00;;
48040;SDS011;33815;48.386;11.738;2023-04-07T02:20:06;19.23;;;11.40;;
48040;SDS011;33815;48.386;11.738;2023-04-07T02:22:34;19.92;;;11.95;;
48040;SDS011;33815;48.386;11.738;2023-04-07T02:24:59;21.35;;;12.38;;
48040;SDS011;33815;48.386;11.738;2023-04-07T02:27:25;20.20;;;12.65;;
48040;SDS011;33815;48.386;11.738;2023-04-07T02:29:50;19.80;;;12.18;;
48040;SDS011;33815;48.386;11.738;2023-04-07T02:32:15;15.73;;;10.93;;
48040;SDS011;33815;48.386;11.738;2023-04-07T02:34:41;16.92;;;10.95;;
48040;SDS011;33815;48.386;11.738;2023-04-07T02:37:07;17.92;;;11.27;;
48040;SDS011;33815;48.386;11.738;2023-04-07T02:39:32;19.20;;;11.00;;
48040;SDS011;33815;48.386;11.738;2023-04-07T02:41:57;16.90;;;9.85;;
48040;SDS011;33815;48.386;11.738;2023-04-07T02:44:23;17.92;;;11.25;;
48040;SDS011;33815;48.386;11.738;2023-04-07T02:46:48;17.38;;;10.25;;
48040;SDS011;33815;48.386;11.738;2023-04-07T02:49:13;21.00;;;10.02;;
48040;SDS011;33815;48.386;11.738;2023-04-07T02:51:38;14.77;;;9.85;;
48040;SDS011;33815;48.386;11.738;2023-04-07T02:54:04;17.45;;;9.02;;
48040;SDS011;33815;48.386;11.738;2023-04-07T02:56:29;20.42;;;10.93;;
48040;SDS011;33815;48.386;11.738;2023-04-07T02:58:55;15.48;;;9.52;;
48040;SDS011;33815;48.386;11.738;2023-04-07T03:01:20;18.92;;;10.73;;
48040;SDS011;33815;48.386;11.738;2023-04-07T03:03:45;15.25;;;10.05;;
48040;SDS011;33815;48.386;11.738;2023-04-07T03:06:11;20.50;;;12.45;;
48040;SDS011;33815;48.386;11.738;2023-04-07T03:08:37;18.00;;;10.90;;
48040;SDS011;33815;48.386;11.738;2023-04-07T03:11:02;18.00;;;10.50;;
48040;SDS011;33815;48.386;11.738;2023-04-07T03:13:27;18.80;;;10.63;;
48040;SDS011;33815;48.386;11.738;2023-04-07T03:15:54;15.13;;;9.52;;
48040;SDS011;33815;48.386;11.738;2023-04-07T03:18:20;18.65;;;9.82;;
48040;SDS011;33815;48.386;11.738;2023-04-07T03:20:46;14.88;;;10.25;;
48040;SDS011;33815;48.386;11.738;2023-04-07T03:23:12;15.88;;;10.38;;
48040;SDS011;33815;48.386;11.738;2023-04-07T03:25:38;16.55;;;9.73;;
48040;SDS011;33815;48.386;11.738;2023-04-07T03:28:03;15.20;;;9.10;;
48040;SDS011;33815;48.386;11.738;2023-04-07T03:30:28;18.60;;;10.40;;
48040;SDS011;33815;48.386;11.738;2023-04-07T03:32:53;13.32;;;9.48;;
48040;SDS011;33815;48.386;11.738;2023-04-07T03:35:19;14.95;;;9.45;;
48040;SDS011;33815;48.386;11.738;2023-04-07T03:37:44;20.05;;;10.68;;
48040;SDS011;33815;48.386;11.738;2023-04-07T03:40:09;16.48;;;10.45;;
48040;SDS011;33815;48.386;11.738;2023-04-07T03:42:35;16.67;;;10.52;;
48040;SDS011;33815;48.386;11.738;2023-04-07T03:45:00;16.25;;;10.50;;
48040;SDS011;33815;48.386;11.738;2023-04-07T03:47:26;19.17;;;11.27;;
48040;SDS011;33815;48.386;11.738;2023-04-07T03:49:51;18.02;;;10.95;;
48040;SDS011;33815;48.386;11.738;2023-04-07T03:52:16;17.83;;;11.02;;
48040;SDS011;33815;48.386;11.738;2023-04-07T03:54:41;17.23;;;10.60;;
48040;SDS011;33815;48.386;11.738;2023-04-07T03:59:32;17.58;;;10.63;;
48040;SDS011;33815;48.386;11.738;2023-04-07T04:01:58;18.90;;;11.27;;
48040;SDS011;33815;48.386;11.738;2023-04-07T04:04:23;23.88;;;11.70;;
48040;SDS011;33815;48.386;11.738;2023-04-07T04:06:49;17.85;;;11.05;;
48040;SDS011;33815;48.386;11.738;2023-04-07T04:09:14;15.18;;;9.90;;
48040;SDS011;33815;48.386;11.738;2023-04-07T04:11:40;19.40;;;11.50;;
48040;SDS011;33815;48.386;11.738;2023-04-07T04:14:05;20.85;;;12.02;;
48040;SDS011;33815;48.386;11.738;2023-04-07T04:16:30;22.05;;;11.13;;
48040;SDS011;33815;48.386;11.738;2023-04-07T04:18:56;21.52;;;10.00;;
48040;SDS011;33815;48.386;11.738;2023-04-07T04:21:21;15.15;;;11.13;;
48040;SDS011;33815;48.386;11.738;2023-04-07T04:23:46;18.85;;;11.90;;
48040;SDS011;33815;48.386;11.738;2023-04-07T04:26:12;16.08;;;10.55;;
48040;SDS011;33815;48.386;11.738;2023-04-07T04:28:37;21.95;;;11.65;;
48040;SDS011;33815;48.386;11.738;2023-04-07T04:31:02;17.70;;;10.43;;
48040;SDS011;33815;48.386;11.738;2023-04-07T04:33:27;18.25;;;10.90;;
48040;SDS011;33815;48.386;11.738;2023-04-07T04:35:53;16.48;;;10.73;;
48040;SDS011;33815;48.386;11.738;2023-04-07T04:38:18;22.27;;;12.55;;
48040;SDS011;33815;48.386;11.738;2023-04-07T04:40:43;19.63;;;11.85;;
48040;SDS011;33815;48.386;11.738;2023-04-07T04:43:08;20.08;;;12.10;;
48040;SDS011;33815;48.386;11.738;2023-04-07T04:45:34;18.63;;;11.95;;
48040;SDS011;33815;48.386;11.738;2023-04-07T04:47:59;18.80;;;12.25;;
48040;SDS011;33815;48.386;11.738;2023-04-07T04:50:25;17.15;;;11.48;;
48040;SDS011;33815;48.386;11.738;2023-04-07T04:52:50;18.48;;;11.70;;
48040;SDS011;33815;48.386;11.738;2023-04-07T04:55:16;21.30;;;13.10;;
48040;SDS011;33815;48.386;11.738;2023-04-07T04:57:41;19.67;;;11.90;;
48040;SDS011;33815;48.386;11.738;2023-04-07T05:00:06;19.38;;;12.02;;
48040;SDS011;33815;48.386;11.738;2023-04-07T05:02:32;21.48;;;12.80;;
48040;SDS011;33815;48.386;11.738;2023-04-07T05:04:58;18.65;;;11.77;;
48040;SDS011;33815;48.386;11.738;2023-04-07T05:07:23;20.95;;;12.40;;
48040;SDS011;33815;48.386;11.738;2023-04-07T05:09:48;19.50;;;12.45;;
48040;SDS011;33815;48.386;11.738;2023-04-07T05:12:14;19.58;;;12.23;;
48040;SDS011;33815;48.386;11.738;2023-04-07T05:14:40;19.52;;;12.60;;
48040;SDS011;33815;48.386;11.738;2023-04-07T05:17:05;18.40;;;13.05;;
48040;SDS011;33815;48.386;11.738;2023-04-07T05:19:30;19.98;;;11.75;;
48040;SDS011;33815;48.386;11.738;2023-04-07T05:21:56;20.90;;;12.50;;
48040;SDS011;33815;48.386;11.738;2023-04-07T05:24:21;19.15;;;11.43;;
48040;SDS011;33815;48.386;11.738;2023-04-07T05:26:47;14.13;;;10.20;;
48040;SDS011;33815;48.386;11.738;2023-04-07T05:29:12;16.15;;;11.15;;
48040;SDS011;33815;48.386;11.738;2023-04-07T05:31:37;19.77;;;11.88;;
48040;SDS011;33815;48.386;11.738;2023-04-07T05:34:04;17.00;;;11.32;;
48040;SDS011;33815;48.386;11.738;2023-04-07T05:36:29;15.73;;;10.65;;
48040;SDS011;33815;48.386;11.738;2023-04-07T05:38:55;15.80;;;11.30;;
48040;SDS011;33815;48.386;11.738;2023-04-07T05:41:21;21.63;;;11.82;;
48040;SDS011;33815;48.386;11.738;2023-04-07T05:43:46;18.35;;;12.38;;
48040;SDS011;33815;48.386;11.738;2023-04-07T05:46:11;16.70;;;11.35;;
48040;SDS011;33815;48.386;11.738;2023-04-07T05:48:36;18.05;;;12.52;;
48040;SDS011;33815;48.386;11.738;2023-04-07T05:51:02;18.33;;;12.55;;
48040;SDS011;33815;48.386;11.738;2023-04-07T05:53:27;20.67;;;12.90;;
48040;SDS011;33815;48.386;11.738;2023-04-07T05:55:52;21.33;;;12.23;;
48040;SDS011;33815;48.386;11.738;2023-04-07T05:58:18;18.98;;;13.00;;
48040;SDS011;33815;48.386;11.738;2023-04-07T06:00:43;18.85;;;12.80;;
48040;SDS011;33815;48.386;11.738;2023-04-07T06:03:08;19.63;;;12.90;;
48040;SDS011;33815;48.386;11.738;2023-04-07T06:05:33;21.48;;;12.75;;
48040;SDS011;33815;48.386;11.738;2023-04-07T06:07:59;17.35;;;11.88;;
48040;SDS011;33815;48.386;11.738;2023-04-07T06:10:24;25.58;;;13.55;;
48040;SDS011;33815;48.386;11.738;2023-04-07T06:12:50;20.65;;;12.52;;
48040;SDS011;33815;48.386;11.738;2023-04-07T06:15:15;16.70;;;11.77;;
48040;SDS011;33815;48.386;11.738;2023-04-07T06:17:41;16.92;;;11.15;;
48040;SDS011;33815;48.386;11.738;2023-04-07T06:20:07;17.98;;;12.60;;
48040;SDS011;33815;48.386;11.738;2023-04-07T06:22:33;18.15;;;11.70;;
48040;SDS011;33815;48.386;11.738;2023-04-07T06:24:58;21.80;;;12.88;;
48040;SDS011;33815;48.386;11.738;2023-04-07T06:27:23;18.88;;;13.27;;
48040;SDS011;33815;48.386;11.738;2023-04-07T06:29:49;18.70;;;12.43;;
48040;SDS011;33815;48.386;11.738;2023-04-07T06:32:14;19.85;;;11.98;;
48040;SDS011;33815;48.386;11.738;2023-04-07T06:34:41;18.90;;;12.93;;
48040;SDS011;33815;48.386;11.738;2023-04-07T06:37:06;17.90;;;12.27;;
48040;SDS011;33815;48.386;11.738;2023-04-07T06:39:31;18.40;;;12.77;;
48040;SDS011;33815;48.386;11.738;2023-04-07T06:41:57;18.33;;;11.93;;
48040;SDS011;33815;48.386;11.738;2023-04-07T06:44:22;17.73;;;11.32;;
48040;SDS011;33815;48.386;11.738;2023-04-07T06:46:47;16.08;;;11.60;;
48040;SDS011;33815;48.386;11.738;2023-04-07T06:49:16;18.38;;;10.95;;
48040;SDS011;33815;48.386;11.738;2023-04-07T06:51:42;19.55;;;10.95;;
48040;SDS011;33815;48.386;11.738;2023-04-07T06:54:07;14.88;;;10.40;;
48040;SDS011;33815;48.386;11.738;2023-04-07T06:56:36;14.63;;;9.23;;
48040;SDS011;33815;48.386;11.738;2023-04-07T06:59:02;14.00;;;10.07;;
48040;SDS011;33815;48.386;11.738;2023-04-07T07:01:27;14.70;;;9.48;;
48040;SDS011;33815;48.386;11.738;2023-04-07T07:03:53;12.57;;;9.13;;
48040;SDS011;33815;48.386;11.738;2023-04-07T07:06:18;18.33;;;9.98;;
48040;SDS011;33815;48.386;11.738;2023-04-07T07:08:43;13.35;;;8.77;;
48040;SDS011;33815;48.386;11.738;2023-04-07T07:11:08;12.38;;;8.40;;
48040;SDS011;33815;48.386;11.738;2023-04-07T07:13:34;11.65;;;7.75;;
48040;SDS011;33815;48.386;11.738;2023-04-07T07:15:59;13.48;;;8.98;;
48040;SDS011;33815;48.386;11.738;2023-04-07T07:18:25;11.48;;;7.30;;
48040;SDS011;33815;48.386;11.738;2023-04-07T07:20:50;9.50;;;7.30;;
48040;SDS011;33815;48.386;11.738;2023-04-07T07:23:15;11.57;;;6.90;;
48040;SDS011;33815;48.386;11.738;2023-04-07T07:25:40;13.13;;;7.72;;
48040;SDS011;33815;48.386;11.738;2023-04-07T07:28:06;7.90;;;7.00;;
48040;SDS011;33815;48.386;11.738;2023-04-07T07:30:33;7.72;;;5.97;;
48040;SDS011;33815;48.386;11.738;2023-04-07T07:32:58;10.10;;;6.60;;
48040;SDS011;33815;48.386;11.738;2023-04-07T07:35:23;11.55;;;5.95;;
48040;SDS011;33815;48.386;11.738;2023-04-07T07:37:49;9.18;;;6.53;;
48040;SDS011;33815;48.386;11.738;2023-04-07T07:40:14;8.55;;;6.50;;
48040;SDS011;33815;48.386;11.738;2023-04-07T07:42:39;10.07;;;6.28;;
48040;SDS011;33815;48.386;11.738;2023-04-07T07:45:05;8.80;;;6.80;;
48040;SDS011;33815;48.386;11.738;2023-04-07T07:47:31;9.20;;;6.78;;
48040;SDS011;33815;48.386;11.738;2023-04-07T07:49:56;7.90;;;5.70;;
48040;SDS011;33815;48.386;11.738;2023-04-07T07:52:22;6.43;;;5.38;;
48040;SDS011;33815;48.386;11.738;2023-04-07T07:54:48;9.63;;;6.80;;
48040;SDS011;33815;48.386;11.738;2023-04-07T07:57:14;7.25;;;5.82;;
48040;SDS011;33815;48.386;11.738;2023-04-07T07:59:40;9.18;;;6.90;;
48040;SDS011;33815;48.386;11.738;2023-04-07T08:02:05;8.02;;;6.05;;
48040;SDS011;33815;48.386;11.738;2023-04-07T08:04:31;9.52;;;6.10;;
48040;SDS011;33815;48.386;11.738;2023-04-07T08:06:57;9.15;;;6.20;;
48040;SDS011;33815;48.386;11.738;2023-04-07T08:09:22;8.07;;;6.10;;
48040;SDS011;33815;48.386;11.738;2023-04-07T08:11:48;6.88;;;5.45;;
48040;SDS011;33815;48.386;11.738;2023-04-07T08:14:13;8.70;;;6.35;;
48040;SDS011;33815;48.386;11.738;2023-04-07T08:16:39;6.95;;;5.72;;
48040;SDS011;33815;48.386;11.738;2023-04-07T08:19:04;6.60;;;5.13;;
48040;SDS011;33815;48.386;11.738;2023-04-07T08:21:30;8.02;;;5.68;;
48040;SDS011;33815;48.386;11.738;2023-04-07T08:23:55;8.52;;;6.05;;
48040;SDS011;33815;48.386;11.738;2023-04-07T08:26:21;7.93;;;5.88;;
48040;SDS011;33815;48.386;11.738;2023-04-07T08:28:46;8.02;;;6.40;;
48040;SDS011;33815;48.386;11.738;2023-04-07T08:31:13;6.47;;;5.40;;
48040;SDS011;33815;48.386;11.738;2023-04-07T08:33:38;7.47;;;5.97;;
48040;SDS011;33815;48.386;11.738;2023-04-07T08:36:03;10.20;;;6.05;;
48040;SDS011;33815;48.386;11.738;2023-04-07T08:38:29;7.88;;;5.70;;
48040;SDS011;33815;48.386;11.738;2023-04-07T08:41:00;6.60;;;5.57;;
48040;SDS011;33815;48.386;11.738;2023-04-07T08:43:28;6.45;;;5.68;;
48040;SDS011;33815;48.386;11.738;2023-04-07T08:45:55;10.00;;;6.18;;
48040;SDS011;33815;48.386;11.738;2023-04-07T08:48:22;8.75;;;6.43;;
48040;SDS011;33815;48.386;11.738;2023-04-07T08:50:50;9.43;;;5.85;;
48040;SDS011;33815;48.386;11.738;2023-04-07T08:53:17;8.80;;;6.63;;
48040;SDS011;33815;48.386;11.738;2023-04-07T08:55:52;9.35;;;6.28;;
48040;SDS011;33815;48.386;11.738;2023-04-07T08:58:18;9.88;;;5.43;;
48040;SDS011;33815;48.386;11.738;2023-04-07T09:00:44;8.63;;;6.13;;
48040;SDS011;33815;48.386;11.738;2023-04-07T09:03:13;7.65;;;5.93;;
48040;SDS011;33815;48.386;11.738;2023-04-07T09:05:39;6.70;;;5.70;;
48040;SDS011;33815;48.386;11.738;2023-04-07T09:08:05;7.75;;;6.15;;
48040;SDS011;33815;48.386;11.738;2023-04-07T09:10:30;7.90;;;5.88;;
48040;SDS011;33815;48.386;11.738;2023-04-07T09:12:57;9.60;;;6.82;;
48040;SDS011;33815;48.386;11.738;2023-04-07T09:15:23;7.72;;;5.93;;
48040;SDS011;33815;48.386;11.738;2023-04-07T09:17:50;7.07;;;5.30;;
48040;SDS011;33815;48.386;11.738;2023-04-07T09:20:15;10.10;;;6.43;;
48040;SDS011;33815;48.386;11.738;2023-04-07T09:22:41;7.72;;;5.93;;
48040;SDS011;33815;48.386;11.738;2023-04-07T09:25:19;8.48;;;6.30;;
48040;SDS011;33815;48.386;11.738;2023-04-07T09:27:57;6.53;;;5.43;;
48040;SDS011;33815;48.386;11.738;2023-04-07T09:30:24;9.23;;;6.10;;
48040;SDS011;33815;48.386;11.738;2023-04-07T09:32:50;10.07;;;6.38;;
48040;SDS011;33815;48.386;11.738;2023-04-07T09:35:15;7.80;;;6.13;;
48040;SDS011;33815;48.386;11.738;2023-04-07T09:37:41;8.13;;;6.30;;
48040;SDS011;33815;48.386;11.738;2023-04-07T09:40:06;8.13;;;5.95;;
48040;SDS011;33815;48.386;11.738;2023-04-07T09:42:32;9.02;;;6.75;;
48040;SDS011;33815;48.386;11.738;2023-04-07T09:45:00;11.30;;;6.57;;
48040;SDS011;33815;48.386;11.738;2023-04-07T09:47:27;8.85;;;7.03;;
48040;SDS011;33815;48.386;11.738;2023-04-07T09:49:53;7.13;;;6.15;;
48040;SDS011;33815;48.386;11.738;2023-04-07T09:53:05;10.13;;;6.63;;
48040;SDS011;33815;48.386;11.738;2023-04-07T09:55:12;6.95;;;5.72;;
48040;SDS011;33815;48.386;11.738;2023-04-07T09:57:40;9.13;;;7.07;;
48040;SDS011;33815;48.386;11.738;2023-04-07T10:00:05;9.98;;;6.35;;
48040;SDS011;33815;48.386;11.738;2023-04-07T10:02:31;9.48;;;6.10;;
48040;SDS011;33815;48.386;11.738;2023-04-07T10:04:57;7.55;;;6.50;;
48040;SDS011;33815;48.386;11.738;2023-04-07T10:07:23;7.75;;;6.63;;
48040;SDS011;33815;48.386;11.738;2023-04-07T10:09:49;8.85;;;6.57;;
48040;SDS011;33815;48.386;11.738;2023-04-07T10:12:17;10.13;;;6.93;;
48040;SDS011;33815;48.386;11.738;2023-04-07T10:14:43;9.50;;;6.95;;
48040;SDS011;33815;48.386;11.738;2023-04-07T10:17:10;9.07;;;6.70;;
48040;SDS011;33815;48.386;11.738;2023-04-07T10:19:42;7.65;;;5.97;;
48040;SDS011;33815;48.386;11.738;2023-04-07T10:22:09;10.40;;;6.63;;
48040;SDS011;33815;48.386;11.738;2023-04-07T10:27:30;9.60;;;6.65;;
48040;SDS011;33815;48.386;11.738;2023-04-07T10:29:58;7.97;;;6.35;;
48040;SDS011;33815;48.386;11.738;2023-04-07T10:32:25;9.18;;;5.95;;
48040;SDS011;33815;48.386;11.738;2023-04-07T10:37:17;10.25;;;6.82;;
48040;SDS011;33815;48.386;11.738;2023-04-07T10:39:45;9.52;;;6.88;;
48040;SDS011;33815;48.386;11.738;2023-04-07T10:45:02;9.50;;;6.68;;
48040;SDS011;33815;48.386;11.738;2023-04-07T10:47:28;10.27;;;6.75;;
48040;SDS011;33815;48.386;11.738;2023-04-07T10:52:42;12.05;;;6.47;;
48040;SDS011;33815;48.386;11.738;2023-04-07T10:55:27;10.65;;;6.90;;
48040;SDS011;33815;48.386;11.738;2023-04-07T11:00:41;9.00;;;6.60;;
48040;SDS011;33815;48.386;11.738;2023-04-07T11:03:10;10.02;;;6.97;;
48040;SDS011;33815;48.386;11.738;2023-04-07T11:05:37;7.20;;;6.32;;
48040;SDS011;33815;48.386;11.738;2023-04-07T11:08:03;8.90;;;6.55;;
48040;SDS011;33815;48.386;11.738;2023-04-07T11:10:30;8.95;;;6.60;;
48040;SDS011;33815;48.386;11.738;2023-04-07T11:12:57;9.00;;;6.80;;
48040;SDS011;33815;48.386;11.738;2023-04-07T11:15:25;8.27;;;6.60;;
48040;SDS011;33815;48.386;11.738;2023-04-07T11:18:10;7.25;;;5.88;;
48040;SDS011;33815;48.386;11.738;2023-04-07T11:20:42;8.63;;;6.75;;
48040;SDS011;33815;48.386;11.738;2023-04-07T11:23:09;9.30;;;6.82;;
48040;SDS011;33815;48.386;11.738;2023-04-07T11:25:35;10.25;;;6.55;;
48040;SDS011;33815;48.386;11.738;2023-04-07T11:28:02;12.60;;;6.32;;
48040;SDS011;33815;48.386;11.738;2023-04-07T11:30:28;9.27;;;6.65;;
48040;SDS011;33815;48.386;11.738;2023-04-07T11:32:53;8.70;;;6.82;;
48040;SDS011;33815;48.386;11.738;2023-04-07T11:35:20;9.32;;;5.95;;
48040;SDS011;33815;48.386;11.738;2023-04-07T11:37:47;7.05;;;5.90;;
48040;SDS011;33815;48.386;11.738;2023-04-07T11:40:12;7.45;;;5.88;;
48040;SDS011;33815;48.386;11.738;2023-04-07T11:42:41;7.32;;;6.40;;
48040;SDS011;33815;48.386;11.738;2023-04-07T11:45:16;8.07;;;6.60;;
48040;SDS011;33815;48.386;11.738;2023-04-07T11:47:43;9.40;;;6.13;;
48040;SDS011;33815;48.386;11.738;2023-04-07T11:50:09;8.02;;;6.15;;
48040;SDS011;33815;48.386;11.738;2023-04-07T11:55:06;8.52;;;6.93;;
48040;SDS011;33815;48.386;11.738;2023-04-07T11:57:40;9.32;;;6.93;;
48040;SDS011;33815;48.386;11.738;2023-04-07T12:00:06;8.15;;;6.32;;
48040;SDS011;33815;48.386;11.738;2023-04-07T12:02:33;10.57;;;6.75;;
48040;SDS011;33815;48.386;11.738;2023-04-07T12:04:59;7.63;;;6.05;;
48040;SDS011;33815;48.386;11.738;2023-04-07T12:07:24;8.23;;;6.00;;
48040;SDS011;33815;48.386;11.738;2023-04-07T12:09:50;7.18;;;6.03;;
48040;SDS011;33815;48.386;11.738;2023-04-07T12:12:23;6.70;;;5.85;;
48040;SDS011;33815;48.386;11.738;2023-04-07T12:14:53;7.95;;;5.90;;
48040;SDS011;33815;48.386;11.738;2023-04-07T12:17:22;8.68;;;6.38;;
48040;SDS011;33815;48.386;11.738;2023-04-07T12:19:48;7.60;;;5.95;;
48040;SDS011;33815;48.386;11.738;2023-04-07T12:22:14;6.10;;;5.25;;
48040;SDS011;33815;48.386;11.738;2023-04-07T12:24:39;7.13;;;5.95;;
48040;SDS011;33815;48.386;11.738;2023-04-07T12:27:05;6.93;;;5.75;;
48040;SDS011;33815;48.386;11.738;2023-04-07T12:29:30;5.80;;;5.20;;
48040;SDS011;33815;48.386;11.738;2023-04-07T12:31:55;6.85;;;5.28;;
48040;SDS011;33815;48.386;11.738;2023-04-07T12:34:21;6.82;;;5.25;;
48040;SDS011;33815;48.386;11.738;2023-04-07T12:36:46;6.68;;;5.10;;
48040;SDS011;33815;48.386;11.738;2023-04-07T12:39:12;8.82;;;6.45;;
48040;SDS011;33815;48.386;11.738;2023-04-07T12:41:38;8.52;;;6.57;;
48040;SDS011;33815;48.386;11.738;2023-04-07T12:44:03;6.88;;;5.53;;
48040;SDS011;33815;48.386;11.738;2023-04-07T12:46:29;6.97;;;5.63;;
48040;SDS011;33815;48.386;11.738;2023-04-07T12:48:55;6.72;;;5.10;;
48040;SDS011;33815;48.386;11.738;2023-04-07T12:51:20;6.20;;;5.35;;
48040;SDS011;33815;48.386;11.738;2023-04-07T12:53:46;6.78;;;4.85;;
48040;SDS011;33815;48.386;11.738;2023-04-07T12:56:12;5.10;;;4.15;;
48040;SDS011;33815;48.386;11.738;2023-04-07T12:58:38;6.43;;;4.97;;
48040;SDS011;33815;48.386;11.738;2023-04-07T13:01:04;6.25;;;4.60;;
48040;SDS011;33815;48.386;11.738;2023-04-07T13:03:29;5.50;;;4.60;;
48040;SDS011;33815;48.386;11.738;2023-04-07T13:05:55;6.60;;;4.75;;
48040;SDS011;33815;48.386;11.738;2023-04-07T13:08:20;5.10;;;4.55;;
48040;SDS011;33815;48.386;11.738;2023-04-07T13:10:46;6.93;;;4.93;;
48040;SDS011;33815;48.386;11.738;2023-04-07T13:13:11;5.40;;;3.97;;
48040;SDS011;33815;48.386;11.738;2023-04-07T13:15:36;7.15;;;4.57;;
48040;SDS011;33815;48.386;11.738;2023-04-07T13:18:02;4.65;;;4.25;;
48040;SDS011;33815;48.386;11.738;2023-04-07T13:20:27;9.02;;;4.78;;
48040;SDS011;33815;48.386;11.738;2023-04-07T13:22:54;5.40;;;4.85;;
48040;SDS011;33815;48.386;11.738;2023-04-07T13:25:19;4.47;;;4.07;;
48040;SDS011;33815;48.386;11.738;2023-04-07T13:27:45;5.20;;;4.43;;
48040;SDS011;33815;48.386;11.738;2023-04-07T13:30:10;5.57;;;4.53;;
48040;SDS011;33815;48.386;11.738;2023-04-07T13:32:36;5.13;;;4.00;;
48040;SDS011;33815;48.386;11.738;2023-04-07T13:35:02;5.28;;;3.80;;
48040;SDS011;33815;48.386;11.738;2023-04-07T13:37:27;5.43;;;4.00;;
48040;SDS011;33815;48.386;11.738;2023-04-07T13:39:52;4.90;;;4.40;;
48040;SDS011;33815;48.386;11.738;2023-04-07T13:42:18;4.67;;;4.17;;
48040;SDS011;33815;48.386;11.738;2023-04-07T13:44:44;5.70;;;4.35;;
48040;SDS011;33815;48.386;11.738;2023-04-07T13:47:11;4.93;;;4.35;;
48040;SDS011;33815;48.386;11.738;2023-04-07T13:49:38;4.55;;;3.63;;
48040;SDS011;33815;48.386;11.738;2023-04-07T13:52:04;7.13;;;4.80;;
48040;SDS011;33815;48.386;11.738;2023-04-07T13:54:29;4.45;;;3.67;;
48040;SDS011;33815;48.386;11.738;2023-04-07T13:56:55;5.80;;;4.18;;
48040;SDS011;33815;48.386;11.738;2023-04-07T13:59:20;4.80;;;3.83;;
48040;SDS011;33815;48.386;11.738;2023-04-07T14:01:45;3.83;;;3.40;;
48040;SDS011;33815;48.386;11.738;2023-04-07T14:04:11;5.22;;;3.90;;
48040;SDS011;33815;48.386;11.738;2023-04-07T14:06:37;3.63;;;3.33;;
48040;SDS011;33815;48.386;11.738;2023-04-07T14:09:02;4.45;;;3.65;;
48040;SDS011;33815;48.386;11.738;2023-04-07T14:11:28;4.10;;;3.50;;
48040;SDS011;33815;48.386;11.738;2023-04-07T14:13:54;4.18;;;3.78;;
48040;SDS011;33815;48.386;11.738;2023-04-07T14:16:21;4.30;;;3.55;;
48040;SDS011;33815;48.386;11.738;2023-04-07T14:18:46;5.75;;;4.35;;
48040;SDS011;33815;48.386;11.738;2023-04-07T14:21:13;4.57;;;3.55;;
48040;SDS011;33815;48.386;11.738;2023-04-07T14:23:39;4.82;;;3.33;;
48040;SDS011;33815;48.386;11.738;2023-04-07T14:26:04;5.35;;;4.13;;
48040;SDS011;33815;48.386;11.738;2023-04-07T14:28:33;5.22;;;3.95;;
48040;SDS011;33815;48.386;11.738;2023-04-07T14:30:58;5.93;;;4.43;;
48040;SDS011;33815;48.386;11.738;2023-04-07T14:33:23;4.80;;;4.25;;
48040;SDS011;33815;48.386;11.738;2023-04-07T14:35:50;5.00;;;4.25;;
48040;SDS011;33815;48.386;11.738;2023-04-07T14:38:15;5.18;;;3.78;;
48040;SDS011;33815;48.386;11.738;2023-04-07T14:40:40;6.20;;;4.85;;
48040;SDS011;33815;48.386;11.738;2023-04-07T14:43:06;4.87;;;4.07;;
48040;SDS011;33815;48.386;11.738;2023-04-07T14:45:32;4.60;;;3.92;;
48040;SDS011;33815;48.386;11.738;2023-04-07T14:47:57;4.60;;;3.67;;
48040;SDS011;33815;48.386;11.738;2023-04-07T14:50:22;5.10;;;4.10;;